Time;durP1;ratioP1;P1;durP2;ratioP2;P2;SDS_P1;SDS_P2;PMS_P1;PMS_P2;Temp;Humidity;BMP_temperature;BMP_pressure;BME280_temperature;BME280_humidity;BME280_pressure;Samples;Min_cycle;Max_cycle;Signal;HPM_P1;HPM_P2
2023/09/21 00:01:10;;;;;;;0.13;0.13;;;19.50;99.90;;;;;;7405914;19;20127;-84
2023/09/21 00:03:39;;;;;;;0.10;0.10;;;19.50;99.90;;;;;;7406223;19;20142;-83
2023/09/21 00:06:05;;;;;;;0.10;0.10;;;19.30;99.90;;;;;;7408109;19;20154;-82
2023/09/21 00:08:31;;;;;;;0.20;0.20;;;19.10;99.90;;;;;;7407205;19;20146;-83
2023/09/21 00:10:58;;;;;;;0.15;0.15;;;19.10;99.90;;;;;;7406277;19;20151;-82
2023/09/21 00:13:28;;;;;;;0.10;0.10;;;19.10;99.90;;;;;;7410330;19;20462;-83
2023/09/21 00:15:59;;;;;;;0.17;0.17;;;19.30;99.90;;;;;;7409269;19;20137;-84
2023/09/21 00:18:25;;;;;;;0.15;0.15;;;19.50;99.90;;;;;;7408927;19;20134;-83
2023/09/21 00:20:55;;;;;;;0.30;0.30;;;19.80;99.90;;;;;;7409345;19;20142;-82
2023/09/21 00:23:25;;;;;;;0.20;0.20;;;20.00;99.90;;;;;;7409244;19;20205;-83
2023/09/21 00:26:00;;;;;;;0.20;0.20;;;19.80;99.90;;;;;;7405524;19;20150;-83
2023/09/21 00:28:29;;;;;;;0.20;0.20;;;19.40;99.90;;;;;;7404001;19;20164;-83
2023/09/21 00:30:59;;;;;;;0.10;0.10;;;19.40;99.90;;;;;;7402234;19;20138;-83
2023/09/21 00:33:29;;;;;;;0.22;0.22;;;19.30;99.90;;;;;;7400660;19;20532;-84
2023/09/21 00:35:58;;;;;;;0.17;0.17;;;19.10;99.90;;;;;;7404453;19;20620;-82
2023/09/21 00:38:24;;;;;;;0.10;0.10;;;19.10;99.90;;;;;;7407051;19;20135;-82
2023/09/21 00:40:55;;;;;;;0.45;0.30;;;19.30;99.90;;;;;;7404183;19;20151;-85
2023/09/21 00:43:24;;;;;;;0.10;0.10;;;19.30;99.90;;;;;;7405725;19;20198;-83
2023/09/21 00:45:53;;;;;;;0.63;0.47;;;19.10;99.90;;;;;;7404631;19;20139;-83
2023/09/21 00:48:25;;;;;;;0.20;0.20;;;18.90;99.90;;;;;;7405250;19;20143;-83
2023/09/21 00:50:53;;;;;;;0.20;0.20;;;18.80;99.90;;;;;;7405538;19;20145;-84
2023/09/21 00:53:20;;;;;;;0.20;0.20;;;19.00;99.90;;;;;;7401280;19;20161;-83
2023/09/21 00:55:52;;;;;;;0.10;0.10;;;19.20;99.90;;;;;;7396604;19;20150;-83
2023/09/21 00:58:21;;;;;;;0.10;0.10;;;19.30;99.90;;;;;;7399456;19;20166;-84
2023/09/21 01:00:48;;;;;;;0.05;0.05;;;19.10;99.90;;;;;;7398319;19;20158;-84
2023/09/21 01:03:14;;;;;;;0.20;0.20;;;19.20;99.90;;;;;;7396273;19;20134;-84
2023/09/21 01:05:41;;;;;;;0.10;0.10;;;19.20;99.90;;;;;;7393835;19;20154;-84
2023/09/21 01:08:11;;;;;;;0.10;0.10;;;19.40;99.90;;;;;;7398108;19;20636;-85
2023/09/21 01:10:44;;;;;;;0.10;0.10;;;19.60;99.90;;;;;;7396612;19;20362;-83
2023/09/21 01:13:12;;;;;;;0.10;0.10;;;19.70;99.90;;;;;;7396532;19;20142;-83
2023/09/21 01:15:41;;;;;;;0.13;0.13;;;19.60;99.90;;;;;;7398138;19;20155;-84
2023/09/21 01:18:09;;;;;;;0.10;0.10;;;19.70;99.90;;;;;;7398511;19;20154;-84
2023/09/21 01:20:35;;;;;;;0.10;0.10;;;19.70;99.90;;;;;;7395816;19;20138;-83
2023/09/21 01:23:08;;;;;;;0.17;0.17;;;19.50;99.90;;;;;;7393867;19;20134;-83
2023/09/21 01:25:39;;;;;;;0.10;0.10;;;19.70;99.90;;;;;;7395978;19;20611;-84
2023/09/21 01:28:08;;;;;;;0.10;0.10;;;19.80;99.90;;;;;;7395605;19;20166;-82
2023/09/21 01:30:38;;;;;;;0.20;0.20;;;20.00;99.90;;;;;;7395974;19;20257;-83
2023/09/21 01:33:15;;;;;;;0.30;0.30;;;20.00;99.90;;;;;;7394536;19;20134;-83
2023/09/21 01:35:48;;;;;;;0.13;0.13;;;20.00;99.90;;;;;;7395091;19;20130;-84
2023/09/21 01:38:14;;;;;;;0.20;0.20;;;19.80;99.90;;;;;;7397707;19;20127;-83
2023/09/21 01:40:41;;;;;;;0.15;0.15;;;19.80;99.90;;;;;;7397569;19;20138;-85
2023/09/21 01:43:08;;;;;;;0.10;0.10;;;19.80;99.90;;;;;;7396582;19;20153;-84
2023/09/21 01:45:40;;;;;;;0.10;0.10;;;19.80;99.90;;;;;;7395315;19;20591;-84
2023/09/21 01:48:09;;;;;;;0.20;0.20;;;19.90;99.90;;;;;;7396043;19;20134;-84
2023/09/21 01:50:40;;;;;;;0.20;0.20;;;19.80;99.90;;;;;;7393872;19;20135;-83
2023/09/21 01:53:08;;;;;;;0.10;0.10;;;19.70;99.90;;;;;;7393085;19;20135;-84
2023/09/21 01:55:34;;;;;;;0.10;0.10;;;19.60;99.90;;;;;;7397327;19;20161;-84
2023/09/21 01:57:59;;;;;;;0.20;0.20;;;19.70;99.90;;;;;;7394872;19;20215;-85
2023/09/21 02:00:25;;;;;;;0.10;0.10;;;19.70;99.90;;;;;;7395204;19;20174;-84
2023/09/21 02:02:52;;;;;;;0.10;0.10;;;19.70;99.90;;;;;;7394902;19;20141;-84
2023/09/21 02:05:18;;;;;;;0.10;0.10;;;19.40;99.90;;;;;;7392393;19;20182;-84
2023/09/21 02:07:44;;;;;;;0.10;0.10;;;19.50;99.90;;;;;;7393253;19;20142;-84
2023/09/21 02:10:10;;;;;;;0.20;0.20;;;19.60;99.90;;;;;;7393889;19;20155;-85
2023/09/21 02:12:41;;;;;;;0.20;0.20;;;19.50;99.90;;;;;;7395195;19;20152;-84
2023/09/21 02:15:12;;;;;;;0.20;0.20;;;19.50;99.90;;;;;;7395722;19;20139;-84
2023/09/21 02:17:41;;;;;;;0.10;0.10;;;19.30;99.90;;;;;;7394033;19;20210;-84
2023/09/21 02:20:16;;;;;;;0.30;0.30;;;19.30;99.90;;;;;;7396658;19;20178;-84
2023/09/21 02:22:47;;;;;;;0.35;0.35;;;19.30;99.90;;;;;;7393221;19;20138;-84
2023/09/21 02:25:13;;;;;;;0.10;0.10;;;19.30;99.90;;;;;;7393031;19;20150;-85
2023/09/21 02:27:48;;;;;;;0.10;0.10;;;19.30;99.90;;;;;;7397847;19;20143;-84
2023/09/21 02:30:21;;;;;;;0.20;0.20;;;19.20;99.90;;;;;;7397469;19;20137;-85
2023/09/21 02:32:48;;;;;;;0.20;0.20;;;19.30;99.90;;;;;;7395628;19;20165;-84
2023/09/21 02:35:22;;;;;;;0.10;0.10;;;18.90;99.90;;;;;;7394663;19;20210;-84
2023/09/21 02:37:49;;;;;;;0.17;0.17;;;19.10;99.90;;;;;;7392933;19;20481;-83
2023/09/21 02:40:17;;;;;;;0.20;0.20;;;19.30;99.90;;;;;;7394028;19;20142;-85
2023/09/21 02:42:44;;;;;;;0.20;0.20;;;19.30;99.90;;;;;;7392900;19;20134;-82
2023/09/21 02:45:11;;;;;;;0.28;0.28;;;19.40;99.90;;;;;;7388628;19;20540;-83
2023/09/21 02:47:43;;;;;;;0.10;0.10;;;19.40;99.90;;;;;;7390604;19;20142;-84
2023/09/21 02:50:21;;;;;;;0.30;0.30;;;19.40;99.90;;;;;;7392510;19;20587;-84
2023/09/21 02:52:56;;;;;;;0.32;0.32;;;19.40;99.90;;;;;;7393417;19;20122;-84
2023/09/21 02:55:23;;;;;;;0.20;0.20;;;19.30;99.90;;;;;;7391259;19;20168;-85
2023/09/21 02:57:58;;;;;;;0.10;0.10;;;19.30;99.90;;;;;;7389715;19;20139;-84
2023/09/21 03:02:55;;;;;;;0.20;0.20;;;19.40;99.90;;;;;;7394027;19;20214;-83
2023/09/21 03:05:21;;;;;;;0.30;0.30;;;19.30;99.90;;;;;;7388690;19;20186;-84
2023/09/21 03:07:48;;;;;;;0.20;0.20;;;19.40;99.90;;;;;;7392161;19;20139;-84
2023/09/21 03:10:16;;;;;;;0.30;0.30;;;19.10;99.90;;;;;;7391024;19;20185;-83
2023/09/21 03:12:42;;;;;;;0.10;0.10;;;18.80;99.90;;;;;;7391309;19;20130;-84
2023/09/21 03:15:15;;;;;;;0.10;0.10;;;18.70;99.90;;;;;;7390541;19;20143;-84
2023/09/21 03:17:42;;;;;;;0.15;0.15;;;18.60;99.90;;;;;;7391131;19;20145;-84
2023/09/21 03:20:12;;;;;;;0.10;0.10;;;18.60;99.90;;;;;;7388327;19;20138;-85
2023/09/21 03:22:40;;;;;;;0.10;0.10;;;18.80;99.90;;;;;;7392978;19;20148;-84
2023/09/21 03:25:16;;;;;;;0.20;0.20;;;19.10;99.90;;;;;;7387400;19;20145;-85
2023/09/21 03:27:42;;;;;;;0.10;0.10;;;19.20;99.90;;;;;;7393076;19;20142;-84
2023/09/21 03:30:11;;;;;;;0.20;0.20;;;19.20;99.90;;;;;;7391376;19;20130;-84
2023/09/21 03:32:40;;;;;;;0.10;0.10;;;18.80;99.90;;;;;;7390085;19;20207;-83
2023/09/21 03:35:06;;;;;;;0.10;0.10;;;19.00;99.90;;;;;;7395200;19;20146;-85
2023/09/21 03:37:32;;;;;;;0.15;0.15;;;19.30;99.90;;;;;;7393445;19;20138;-84
2023/09/21 03:40:01;;;;;;;0.20;0.20;;;19.20;99.90;;;;;;7393354;19;20146;-84
2023/09/21 03:42:27;;;;;;;0.10;0.10;;;19.20;99.90;;;;;;7391384;19;20151;-83
2023/09/21 03:44:53;;;;;;;0.35;0.35;;;19.30;99.90;;;;;;7386697;19;20530;-84
2023/09/21 03:47:19;;;;;;;0.10;0.10;;;18.90;99.90;;;;;;7391302;19;20134;-83
2023/09/21 03:49:44;;;;;;;0.10;0.10;;;18.60;99.90;;;;;;7389230;19;20213;-84
2023/09/21 03:52:16;;;;;;;0.10;0.10;;;18.70;99.90;;;;;;7389694;19;20138;-82
2023/09/21 03:54:47;;;;;;;0.10;0.10;;;18.70;99.90;;;;;;7388793;19;20127;-85
2023/09/21 03:57:15;;;;;;;0.30;0.30;;;18.90;99.90;;;;;;7389705;19;20230;-83
2023/09/21 03:59:42;;;;;;;0.25;0.25;;;19.10;99.90;;;;;;7390179;19;20134;-84
2023/09/21 04:02:08;;;;;;;0.10;0.10;;;19.10;99.90;;;;;;7388691;19;20198;-84
2023/09/21 04:04:34;;;;;;;0.20;0.20;;;18.90;99.90;;;;;;7387912;19;20153;-84
2023/09/21 04:07:01;;;;;;;0.10;0.10;;;18.80;99.90;;;;;;7390265;19;20139;-84
2023/09/21 04:09:27;;;;;;;0.10;0.10;;;18.90;99.90;;;;;;7390285;19;20131;-83
2023/09/21 04:11:53;;;;;;;0.20;0.20;;;18.90;99.90;;;;;;7389945;19;20151;-83
2023/09/21 04:14:19;;;;;;;0.15;0.15;;;18.80;99.90;;;;;;7391133;19;20490;-82
2023/09/21 04:16:45;;;;;;;0.10;0.10;;;19.00;99.90;;;;;;7389008;19;20146;-83
2023/09/21 04:19:10;;;;;;;0.10;0.10;;;19.00;99.90;;;;;;7389293;19;20135;-84
2023/09/21 04:21:36;;;;;;;0.10;0.10;;;19.10;99.90;;;;;;7388785;19;20155;-84
2023/09/21 04:24:03;;;;;;;0.25;0.25;;;19.10;99.90;;;;;;7387631;19;20159;-82
2023/09/21 04:26:29;;;;;;;0.17;0.17;;;19.10;99.90;;;;;;7388139;19;20139;-84
2023/09/21 04:28:55;;;;;;;0.30;0.30;;;19.10;99.90;;;;;;7388055;19;20210;-84
2023/09/21 04:31:21;;;;;;;0.10;0.10;;;19.40;99.90;;;;;;7393737;19;20465;-84
2023/09/21 04:33:47;;;;;;;0.10;0.10;;;19.50;99.90;;;;;;7394647;19;20134;-84
2023/09/21 04:36:14;;;;;;;0.20;0.20;;;19.60;99.90;;;;;;7394879;19;20497;-84
2023/09/21 04:38:39;;;;;;;0.10;0.10;;;19.60;99.90;;;;;;7397632;19;20604;-84
2023/09/21 04:41:06;;;;;;;0.20;0.20;;;19.50;99.90;;;;;;7395187;19;20174;-82
2023/09/21 04:43:32;;;;;;;0.10;0.10;;;19.50;99.90;;;;;;7395439;19;20158;-84
2023/09/21 04:46:02;;;;;;;0.10;0.10;;;19.40;99.90;;;;;;7397360;19;21603;-84
2023/09/21 04:48:31;;;;;;;0.10;0.10;;;19.30;99.90;;;;;;7399508;19;20611;-85
2023/09/21 04:50:57;;;;;;;0.20;0.20;;;19.10;99.90;;;;;;7398231;19;20134;-84
2023/09/21 04:53:27;;;;;;;0.08;0.08;;;19.10;99.90;;;;;;7397247;19;20606;-82
2023/09/21 04:55:53;;;;;;;0.10;0.10;;;19.00;99.90;;;;;;7397800;19;20154;-81
2023/09/21 04:58:20;;;;;;;0.13;0.13;;;18.80;99.90;;;;;;7393935;19;20150;-82
2023/09/21 05:00:46;;;;;;;0.20;0.20;;;18.90;99.90;;;;;;7394745;19;20230;-83
2023/09/21 05:03:11;;;;;;;0.25;0.25;;;18.90;99.90;;;;;;7395923;19;20134;-81
2023/09/21 05:05:37;;;;;;;0.32;0.30;;;19.10;99.90;;;;;;7395177;19;20182;-80
2023/09/21 05:08:03;;;;;;;0.10;0.10;;;19.40;99.90;;;;;;7393571;19;20646;-82
2023/09/21 05:10:30;;;;;;;0.10;0.10;;;19.50;99.90;;;;;;7395522;19;20150;-80
2023/09/21 05:12:57;;;;;;;0.13;0.13;;;19.60;99.90;;;;;;7395895;19;20139;-82
2023/09/21 05:15:26;;;;;;;0.20;0.20;;;19.40;99.90;;;;;;7394999;19;20607;-81
2023/09/21 05:17:52;;;;;;;0.30;0.20;;;19.50;99.90;;;;;;7393581;19;20162;-82
2023/09/21 05:20:18;;;;;;;0.20;0.20;;;19.50;99.90;;;;;;7393246;19;20155;-81
2023/09/21 05:22:44;;;;;;;0.30;0.30;;;19.60;99.90;;;;;;7394453;19;20151;-82
2023/09/21 05:25:10;;;;;;;0.20;0.20;;;19.50;99.90;;;;;;7391366;19;20154;-81
2023/09/21 05:27:36;;;;;;;0.10;0.10;;;19.60;99.90;;;;;;7394709;19;20459;-83
2023/09/21 05:30:04;;;;;;;0.20;0.20;;;19.50;99.90;;;;;;7394840;19;20607;-82
2023/09/21 05:32:32;;;;;;;0.20;0.20;;;19.40;99.90;;;;;;7393103;19;20482;-83
2023/09/21 05:34:59;;;;;;;0.35;0.35;;;19.40;99.90;;;;;;7394450;19;20142;-87
2023/09/21 05:37:24;;;;;;;0.10;0.10;;;19.40;99.90;;;;;;7396230;19;20146;-90
2023/09/21 05:39:51;;;;;;;0.50;0.30;;;19.50;99.90;;;;;;7396614;19;20487;-86
2023/09/21 05:42:17;;;;;;;0.30;0.30;;;19.50;99.90;;;;;;7393122;19;20570;-87
2023/09/21 05:44:45;;;;;;;0.10;0.10;;;19.60;99.90;;;;;;7395201;19;20143;-88
2023/09/21 05:47:11;;;;;;;0.30;0.30;;;19.60;99.90;;;;;;7398194;19;20141;-87
2023/09/21 05:49:38;;;;;;;0.52;0.20;;;19.60;99.90;;;;;;7397072;19;20201;-88
2023/09/21 05:52:11;;;;;;;0.20;0.20;;;19.50;99.90;;;;;;7397070;19;20153;-86
2023/09/21 05:54:37;;;;;;;0.10;0.10;;;19.40;99.90;;;;;;7394158;19;20151;-80
2023/09/21 05:57:04;;;;;;;0.13;0.13;;;19.40;99.90;;;;;;7395094;19;20724;-80
2023/09/21 05:59:31;;;;;;;0.20;0.20;;;19.30;99.90;;;;;;7391818;19;20145;-79
2023/09/21 06:01:58;;;;;;;0.10;0.10;;;19.30;99.90;;;;;;7392945;19;20145;-82
2023/09/21 06:04:24;;;;;;;0.30;0.30;;;19.20;99.90;;;;;;7387845;19;20158;-80
2023/09/21 06:06:58;;;;;;;0.15;0.15;;;19.20;99.90;;;;;;7391881;19;20143;-80
2023/09/21 06:09:25;;;;;;;0.10;0.10;;;19.40;99.90;;;;;;7388830;19;20134;-80
2023/09/21 06:11:54;;;;;;;0.20;0.20;;;19.60;99.90;;;;;;7389711;19;20206;-81
2023/09/21 06:14:22;;;;;;;0.10;0.10;;;19.60;99.90;;;;;;7390109;19;20149;-81
2023/09/21 06:16:51;;;;;;;0.10;0.10;;;19.40;99.90;;;;;;7390337;19;20160;-82
2023/09/21 06:19:18;;;;;;;0.20;0.20;;;19.60;99.90;;;;;;7390179;19;20143;-76
2023/09/21 06:21:48;;;;;;;0.20;0.20;;;19.70;99.90;;;;;;7390454;19;20146;-78
2023/09/21 06:24:31;;;;;;;0.30;0.30;;;19.60;99.90;;;;;;7387163;19;20154;-76
2023/09/21 06:26:57;;;;;;;0.30;0.30;;;19.70;99.90;;;;;;7390099;19;20130;-77
2023/09/21 06:29:23;;;;;;;0.10;0.10;;;19.70;99.90;;;;;;7390799;19;20138;-77
2023/09/21 06:31:54;;;;;;;0.55;0.50;;;19.80;99.90;;;;;;7388155;19;20181;-77
2023/09/21 06:34:26;;;;;;;0.30;0.30;;;19.80;99.90;;;;;;7390808;19;20147;-77
2023/09/21 06:36:56;;;;;;;0.20;0.20;;;19.80;99.90;;;;;;7389010;19;20217;-76
2023/09/21 06:39:24;;;;;;;0.17;0.17;;;19.90;99.90;;;;;;7387924;19;20159;-77
2023/09/21 06:41:50;;;;;;;0.10;0.10;;;19.80;99.90;;;;;;7392262;19;20139;-75
2023/09/21 06:44:18;;;;;;;0.10;0.10;;;19.80;99.90;;;;;;7388497;19;20616;-77
2023/09/21 06:46:44;;;;;;;0.68;0.68;;;19.90;99.90;;;;;;7390653;19;20172;-77
2023/09/21 06:49:10;;;;;;;0.10;0.10;;;19.90;99.90;;;;;;7389320;19;20627;-75
2023/09/21 06:51:36;;;;;;;0.20;0.20;;;19.90;99.90;;;;;;7388887;19;20149;-75
2023/09/21 06:54:01;;;;;;;0.17;0.17;;;19.90;99.90;;;;;;7389671;19;20139;-76
2023/09/21 06:56:31;;;;;;;0.30;0.30;;;20.00;99.90;;;;;;7389547;19;20638;-78
2023/09/21 06:58:57;;;;;;;0.13;0.13;;;19.90;99.90;;;;;;7391730;19;20138;-77
2023/09/21 07:01:24;;;;;;;0.10;0.10;;;20.00;99.90;;;;;;7389263;19;20134;-76
2023/09/21 07:03:50;;;;;;;0.15;0.15;;;19.90;99.90;;;;;;7388705;19;20810;-77
2023/09/21 07:06:19;;;;;;;0.30;0.30;;;20.00;99.90;;;;;;7385592;19;20146;-75
2023/09/21 07:08:47;;;;;;;0.35;0.20;;;20.00;99.90;;;;;;7376524;19;20134;-77
2023/09/21 07:11:14;;;;;;;0.10;0.10;;;20.10;99.90;;;;;;7391393;19;20138;-75
2023/09/21 07:13:42;;;;;;;0.10;0.10;;;20.10;99.90;;;;;;7392450;19;20151;-76
2023/09/21 07:16:08;;;;;;;0.10;0.10;;;20.20;99.90;;;;;;7389927;19;20547;-76
2023/09/21 07:18:36;;;;;;;0.30;0.30;;;20.20;99.90;;;;;;7391595;19;20150;-77
2023/09/21 07:21:02;;;;;;;0.10;0.10;;;20.30;99.90;;;;;;7386544;19;20155;-75
2023/09/21 07:23:29;;;;;;;0.38;0.38;;;20.30;99.90;;;;;;7387651;19;20148;-75
2023/09/21 07:25:57;;;;;;;0.20;0.20;;;20.30;99.90;;;;;;7386091;19;20142;-76
2023/09/21 07:28:23;;;;;;;0.17;0.17;;;20.40;99.90;;;;;;7388266;19;20164;-75
2023/09/21 07:30:53;;;;;;;0.10;0.10;;;20.50;99.90;;;;;;7387267;19;20584;-78
2023/09/21 07:33:22;;;;;;;0.10;0.10;;;20.60;99.90;;;;;;7386893;19;20620;-79
2023/09/21 07:35:48;;;;;;;0.20;0.20;;;20.60;99.90;;;;;;7386812;19;20481;-78
2023/09/21 07:38:14;;;;;;;0.20;0.20;;;20.60;99.90;;;;;;7389735;19;20698;-78
2023/09/21 07:40:40;;;;;;;0.40;0.40;;;20.70;99.90;;;;;;7388409;19;20154;-77
2023/09/21 07:43:06;;;;;;;0.38;0.38;;;20.70;99.90;;;;;;7389954;19;20162;-78
2023/09/21 07:45:33;;;;;;;0.20;0.20;;;20.80;99.90;;;;;;7388398;19;20162;-77
2023/09/21 07:47:59;;;;;;;0.20;0.20;;;20.80;99.90;;;;;;7389444;19;20146;-77
2023/09/21 07:50:26;;;;;;;0.38;0.30;;;20.90;99.90;;;;;;7390515;19;20175;-77
2023/09/21 07:52:56;;;;;;;0.20;0.20;;;21.00;99.90;;;;;;7388931;19;20142;-78
2023/09/21 07:55:22;;;;;;;0.10;0.10;;;21.10;99.90;;;;;;7388822;19;20173;-77
2023/09/21 07:57:49;;;;;;;0.20;0.20;;;21.00;99.90;;;;;;7387887;19;20138;-76
2023/09/21 08:00:15;;;;;;;0.15;0.15;;;21.10;99.90;;;;;;7389371;19;20138;-76
2023/09/21 08:02:41;;;;;;;0.15;0.15;;;20.90;99.90;;;;;;7388433;19;20169;-76
2023/09/21 08:05:12;;;;;;;0.20;0.20;;;20.90;99.90;;;;;;7389692;19;20146;-77
2023/09/21 08:07:39;;;;;;;1.13;0.32;;;21.10;99.90;;;;;;7395436;19;20650;-78
2023/09/21 08:10:06;;;;;;;0.20;0.20;;;21.30;99.90;;;;;;7397713;19;20508;-75
2023/09/21 08:12:35;;;;;;;0.20;0.20;;;21.30;99.90;;;;;;7396360;19;20134;-75
2023/09/21 08:15:01;;;;;;;0.40;0.40;;;21.40;99.90;;;;;;7395107;19;21970;-78
2023/09/21 08:17:31;;;;;;;0.20;0.20;;;21.40;99.90;;;;;;7396660;19;20146;-76
2023/09/21 08:19:57;;;;;;;0.17;0.17;;;21.60;99.90;;;;;;7397767;19;20142;-77
2023/09/21 08:22:23;;;;;;;0.20;0.20;;;21.60;99.90;;;;;;7394239;19;20172;-79
2023/09/21 08:24:49;;;;;;;0.20;0.20;;;21.70;99.90;;;;;;7393680;19;20143;-78
2023/09/21 08:27:22;;;;;;;0.50;0.40;;;21.70;99.90;;;;;;7392643;19;20487;-77
2023/09/21 08:29:49;;;;;;;0.17;0.17;;;21.80;99.90;;;;;;7394195;19;20591;-76
2023/09/21 08:32:15;;;;;;;0.30;0.30;;;21.80;99.90;;;;;;7392161;19;20159;-81
2023/09/21 08:34:44;;;;;;;0.22;0.22;;;21.90;99.90;;;;;;7397233;19;20139;-79
2023/09/21 08:37:10;;;;;;;0.30;0.30;;;22.00;99.90;;;;;;7397778;19;20518;-78
2023/09/21 08:39:36;;;;;;;0.20;0.20;;;21.90;99.90;;;;;;7403347;19;20598;-79
2023/09/21 08:42:03;;;;;;;0.28;0.28;;;21.90;99.90;;;;;;7397365;19;20155;-77
2023/09/21 08:44:30;;;;;;;0.20;0.20;;;21.90;99.90;;;;;;7392277;19;20138;-78
2023/09/21 08:46:58;;;;;;;0.50;0.50;;;22.00;99.90;;;;;;7397115;19;20135;-78
2023/09/21 08:49:26;;;;;;;0.15;0.15;;;22.10;99.90;;;;;;7403517;19;20145;-95
2023/09/21 08:51:53;;;;;;;0.20;0.20;;;22.30;99.90;;;;;;7413072;19;20179;-93
2023/09/21 08:54:23;;;;;;;0.20;0.20;;;22.40;99.90;;;;;;7406041;19;20159;-91
2023/09/21 08:56:55;;;;;;;0.20;0.20;;;22.40;99.90;;;;;;7406518;19;20139;-89
2023/09/21 08:59:24;;;;;;;0.10;0.10;;;22.50;99.90;;;;;;7411374;19;20130;-90
2023/09/21 09:01:51;;;;;;;0.20;0.20;;;22.60;99.90;;;;;;7404751;19;20657;-90
2023/09/21 09:04:19;;;;;;;0.25;0.20;;;22.80;99.90;;;;;;7403457;19;20207;-91
2023/09/21 09:06:46;;;;;;;0.15;0.15;;;23.00;99.90;;;;;;7410137;19;20165;-91
2023/09/21 09:09:11;;;;;;;0.10;0.10;;;23.00;99.90;;;;;;7410703;19;20209;-83
2023/09/21 09:11:39;;;;;;;0.20;0.20;;;23.00;99.90;;;;;;7404812;19;20750;-83
2023/09/21 09:14:11;;;;;;;0.13;0.13;;;22.90;99.90;;;;;;7397695;19;20169;-84
2023/09/21 09:16:37;;;;;;;0.25;0.25;;;23.00;99.90;;;;;;7396838;19;20169;-83
2023/09/21 09:19:05;;;;;;;0.20;0.20;;;23.00;99.90;;;;;;7400283;19;20146;-81
2023/09/21 09:21:31;;;;;;;0.13;0.13;;;23.10;99.90;;;;;;7397740;19;20161;-81
2023/09/21 09:24:00;;;;;;;0.30;0.30;;;23.20;99.90;;;;;;7395992;19;20162;-81
2023/09/21 09:26:26;;;;;;;0.10;0.10;;;23.30;99.90;;;;;;7397775;19;20147;-81
2023/09/21 09:29:09;;;;;;;0.35;0.30;;;23.60;99.90;;;;;;7395908;19;20158;-82
2023/09/21 09:31:37;;;;;;;0.32;0.30;;;23.60;99.90;;;;;;7395224;19;20195;-81
2023/09/21 09:34:04;;;;;;;0.20;0.20;;;23.60;99.90;;;;;;7396384;19;20126;-82
2023/09/21 09:36:35;;;;;;;0.20;0.20;;;23.90;99.90;;;;;;7395888;19;20133;-81
2023/09/21 09:39:00;;;;;;;0.40;0.40;;;23.90;99.90;;;;;;7396605;19;20131;-81
2023/09/21 09:41:28;;;;;;;0.98;0.50;;;24.10;99.90;;;;;;7396069;19;20165;-81
2023/09/21 09:43:58;;;;;;;0.30;0.30;;;24.30;99.90;;;;;;7393290;19;20131;-80
2023/09/21 09:46:26;;;;;;;0.20;0.20;;;24.30;99.90;;;;;;7396159;19;22255;-82
2023/09/21 09:48:57;;;;;;;0.40;0.40;;;24.30;99.90;;;;;;7397446;19;20587;-80
2023/09/21 09:51:34;;;;;;;0.40;0.40;;;24.20;99.90;;;;;;7397139;19;20153;-81
2023/09/21 09:54:00;;;;;;;0.40;0.40;;;24.30;99.90;;;;;;7394158;19;20146;-80
2023/09/21 09:56:26;;;;;;;0.40;0.40;;;24.40;99.90;;;;;;7395902;19;20154;-81
2023/09/21 09:58:57;;;;;;;0.57;0.45;;;24.30;99.90;;;;;;7394816;19;20161;-80
2023/09/21 10:01:25;;;;;;;0.30;0.30;;;24.10;99.90;;;;;;7396723;19;20138;-81
2023/09/21 10:03:54;;;;;;;0.45;0.40;;;24.30;99.90;;;;;;7392564;19;20138;-81
2023/09/21 10:06:21;;;;;;;0.10;0.10;;;24.40;99.90;;;;;;7391941;19;20170;-79
2023/09/21 10:08:47;;;;;;;0.20;0.20;;;24.50;99.90;;;;;;7393474;19;20143;-80
2023/09/21 10:11:13;;;;;;;0.32;0.32;;;24.50;99.90;;;;;;7395311;19;20185;-80
2023/09/21 10:14:03;;;;;;;0.13;0.13;;;24.30;99.90;;;;;;7394523;19;20145;-80
2023/09/21 10:16:31;;;;;;;0.47;0.38;;;24.20;99.90;;;;;;7392508;19;20149;-81
2023/09/21 10:18:58;;;;;;;0.47;0.40;;;24.10;99.90;;;;;;7393153;19;20541;-80
2023/09/21 10:21:34;;;;;;;0.32;0.32;;;24.10;99.90;;;;;;7392311;19;20214;-80
2023/09/21 10:24:11;;;;;;;0.22;0.22;;;24.00;99.90;;;;;;7391481;19;20153;-79
2023/09/21 10:26:40;;;;;;;0.45;0.40;;;24.10;99.90;;;;;;7392954;19;20134;-80
2023/09/21 10:29:07;;;;;;;0.30;0.30;;;24.10;99.90;;;;;;7392904;19;20158;-81
2023/09/21 10:31:37;;;;;;;0.55;0.50;;;24.10;99.90;;;;;;7392032;19;20145;-82
2023/09/21 10:34:03;;;;;;;0.28;0.28;;;24.20;99.90;;;;;;7395648;19;20153;-81
2023/09/21 10:36:30;;;;;;;0.20;0.20;;;24.20;99.90;;;;;;7394204;19;20167;-80
2023/09/21 10:39:06;;;;;;;0.38;0.38;;;24.40;99.90;;;;;;7393220;19;20149;-80
2023/09/21 10:41:35;;;;;;;0.20;0.20;;;24.50;99.90;;;;;;7393394;19;20141;-81
2023/09/21 10:44:06;;;;;;;0.20;0.20;;;24.60;99.90;;;;;;7389487;19;20131;-79
2023/09/21 10:46:37;;;;;;;0.50;0.20;;;24.60;99.90;;;;;;7395308;19;20146;-81
2023/09/21 10:49:09;;;;;;;0.20;0.20;;;24.80;99.90;;;;;;7392690;19;21001;-80
2023/09/21 10:51:43;;;;;;;0.75;0.30;;;24.90;99.90;;;;;;7391505;19;20587;-81
2023/09/21 10:54:13;;;;;;;0.20;0.20;;;24.90;99.90;;;;;;7391361;19;20161;-83
2023/09/21 10:56:41;;;;;;;0.10;0.10;;;25.00;99.90;;;;;;7393234;19;20587;-81
2023/09/21 10:59:07;;;;;;;0.40;0.32;;;24.90;99.90;;;;;;7392450;19;20134;-80
2023/09/21 11:01:35;;;;;;;0.20;0.20;;;25.00;99.90;;;;;;7391294;19;20523;-80
2023/09/21 11:04:02;;;;;;;0.20;0.20;;;25.00;99.90;;;;;;7388711;19;20175;-82
2023/09/21 11:06:28;;;;;;;0.30;0.30;;;25.10;99.90;;;;;;7388467;19;20182;-80
2023/09/21 11:08:55;;;;;;;0.73;0.30;;;25.00;99.90;;;;;;7391588;19;20149;-80
2023/09/21 11:11:22;;;;;;;0.38;0.30;;;25.00;99.90;;;;;;7392210;19;20492;-79
2023/09/21 11:13:52;;;;;;;0.20;0.20;;;25.10;99.90;;;;;;7391334;19;20237;-80
2023/09/21 11:16:21;;;;;;;0.20;0.20;;;25.00;99.90;;;;;;7390671;19;20158;-80
2023/09/21 11:18:52;;;;;;;0.10;0.10;;;25.20;99.90;;;;;;7389526;19;20164;-81
2023/09/21 11:21:19;;;;;;;0.20;0.20;;;25.20;99.90;;;;;;7391352;19;20639;-81
2023/09/21 11:23:45;;;;;;;0.60;0.30;;;25.30;99.90;;;;;;7391095;19;20254;-80
2023/09/21 11:26:12;;;;;;;0.30;0.30;;;25.30;99.90;;;;;;7389939;19;20146;-81
2023/09/21 11:28:38;;;;;;;1.55;0.63;;;25.20;99.90;;;;;;7390753;19;20150;-79
2023/09/21 11:31:08;;;;;;;0.22;0.22;;;25.00;99.90;;;;;;7389955;19;20571;-80
2023/09/21 11:33:37;;;;;;;0.20;0.20;;;25.00;99.90;;;;;;7392173;19;20131;-79
2023/09/21 11:36:04;;;;;;;0.30;0.30;;;25.00;99.90;;;;;;7391925;19;20138;-80
2023/09/21 11:38:33;;;;;;;0.30;0.30;;;25.00;99.90;;;;;;7391032;19;20141;-81
2023/09/21 11:40:59;;;;;;;0.30;0.30;;;25.10;99.90;;;;;;7396472;19;20173;-80
2023/09/21 11:43:25;;;;;;;0.10;0.10;;;25.20;99.90;;;;;;7396898;19;20153;-81
2023/09/21 11:45:52;;;;;;;0.30;0.30;;;25.30;99.90;;;;;;7397108;19;20131;-81
2023/09/21 11:48:23;;;;;;;0.35;0.35;;;25.20;99.90;;;;;;7397390;19;20185;-79
2023/09/21 11:50:49;;;;;;;0.20;0.20;;;25.20;99.90;;;;;;7396880;19;20154;-81
2023/09/21 11:53:19;;;;;;;0.30;0.30;;;25.10;99.90;;;;;;7398152;19;20610;-80
2023/09/21 11:55:46;;;;;;;0.20;0.20;;;25.00;99.90;;;;;;7395918;19;20150;-80
2023/09/21 11:58:15;;;;;;;0.20;0.20;;;25.10;99.90;;;;;;7396380;19;20147;-79
2023/09/21 12:00:45;;;;;;;0.38;0.30;;;25.20;99.90;;;;;;7395598;19;20130;-81
2023/09/21 12:03:13;;;;;;;0.17;0.17;;;25.20;99.90;;;;;;7394948;19;20142;-80
2023/09/21 12:05:42;;;;;;;0.20;0.20;;;25.30;99.90;;;;;;7396105;19;20190;-80
2023/09/21 12:08:13;;;;;;;0.20;0.20;;;25.30;99.90;;;;;;7399318;19;20135;-79
2023/09/21 12:10:47;;;;;;;1.75;1.60;;;25.30;99.90;;;;;;7396028;19;20158;-81
2023/09/21 12:13:17;;;;;;;0.65;0.65;;;25.50;99.90;;;;;;7396200;19;20151;-80
2023/09/21 12:15:43;;;;;;;0.90;0.45;;;25.60;99.90;;;;;;7395890;19;20142;-81
2023/09/21 12:18:12;;;;;;;1.42;0.73;;;25.70;99.90;;;;;;7395101;19;20150;-82
2023/09/21 12:20:44;;;;;;;0.30;0.30;;;25.80;99.90;;;;;;7396546;19;20317;-81
2023/09/21 12:23:12;;;;;;;0.15;0.15;;;25.80;99.90;;;;;;7397201;19;20481;-82
2023/09/21 12:25:39;;;;;;;0.20;0.20;;;25.70;99.90;;;;;;7394390;19;20153;-81
2023/09/21 12:28:05;;;;;;;0.30;0.30;;;25.80;99.90;;;;;;7395626;19;20150;-81
2023/09/21 12:30:30;;;;;;;0.25;0.25;;;25.90;99.90;;;;;;7397441;19;20134;-81
2023/09/21 12:32:56;;;;;;;0.20;0.20;;;26.00;99.90;;;;;;7396094;19;20138;-81
2023/09/21 12:35:25;;;;;;;0.28;0.28;;;26.20;99.90;;;;;;7396068;19;20146;-80
2023/09/21 12:37:52;;;;;;;0.45;0.32;;;26.20;99.90;;;;;;7398744;19;20134;-80
2023/09/21 12:40:18;;;;;;;0.30;0.30;;;26.30;99.90;;;;;;7398751;19;20462;-80
2023/09/21 12:42:45;;;;;;;0.80;0.80;;;26.30;99.90;;;;;;7394863;19;20234;-81
2023/09/21 12:45:15;;;;;;;0.68;0.30;;;26.20;99.90;;;;;;7392374;19;20150;-80
2023/09/21 12:47:42;;;;;;;0.30;0.30;;;26.10;99.90;;;;;;7395317;19;20169;-80
2023/09/21 12:50:09;;;;;;;0.22;0.22;;;26.10;99.90;;;;;;7394789;19;20156;-79
2023/09/21 12:52:36;;;;;;;0.20;0.20;;;26.10;99.90;;;;;;7395178;19;20185;-79
2023/09/21 12:55:05;;;;;;;0.20;0.20;;;26.10;99.90;;;;;;7394863;19;20214;-80